sensor_id;sensor_type;location;lat;lon;timestamp;P1;durP1;ratioP1;P2;durP2;ratioP2
12970;SDS011;6550;48.650;8.774;2023-05-02T00:02:10;3.10;;;2.90;;
12970;SDS011;6550;48.650;8.774;2023-05-02T00:04:39;2.97;;;2.77;;
12970;SDS011;6550;48.650;8.774;2023-05-02T00:07:06;3.10;;;2.90;;
12970;SDS011;6550;48.650;8.774;2023-05-02T00:09:32;4.07;;;2.93;;
12970;SDS011;6550;48.650;8.774;2023-05-02T00:12:00;3.80;;;3.27;;
12970;SDS011;6550;48.650;8.774;2023-05-02T00:14:29;3.90;;;3.50;;
12970;SDS011;6550;48.650;8.774;2023-05-02T00:16:58;3.93;;;3.53;;
12970;SDS011;6550;48.650;8.774;2023-05-02T00:19:25;3.57;;;3.27;;
12970;SDS011;6550;48.650;8.774;2023-05-02T00:21:51;3.87;;;3.57;;
12970;SDS011;6550;48.650;8.774;2023-05-02T00:24:21;7.60;;;3.60;;
12970;SDS011;6550;48.650;8.774;2023-05-02T00:26:47;4.37;;;2.97;;
12970;SDS011;6550;48.650;8.774;2023-05-02T00:29:14;3.60;;;3.30;;
12970;SDS011;6550;48.650;8.774;2023-05-02T00:31:41;3.80;;;3.43;;
12970;SDS011;6550;48.650;8.774;2023-05-02T00:34:08;5.50;;;3.47;;
12970;SDS011;6550;48.650;8.774;2023-05-02T00:36:38;5.73;;;3.40;;
12970;SDS011;6550;48.650;8.774;2023-05-02T00:39:05;4.37;;;3.27;;
12970;SDS011;6550;48.650;8.774;2023-05-02T00:41:32;6.90;;;3.43;;
12970;SDS011;6550;48.650;8.774;2023-05-02T00:44:01;4.13;;;3.27;;
12970;SDS011;6550;48.650;8.774;2023-05-02T00:46:28;5.60;;;3.63;;
12970;SDS011;6550;48.650;8.774;2023-05-02T00:48:55;3.73;;;3.37;;
12970;SDS011;6550;48.650;8.774;2023-05-02T00:51:24;3.70;;;3.40;;
12970;SDS011;6550;48.650;8.774;2023-05-02T00:53:52;4.20;;;3.83;;
12970;SDS011;6550;48.650;8.774;2023-05-02T00:56:19;3.93;;;3.00;;
12970;SDS011;6550;48.650;8.774;2023-05-02T00:58:46;3.77;;;3.43;;
12970;SDS011;6550;48.650;8.774;2023-05-02T01:04:13;3.50;;;3.17;;
12970;SDS011;6550;48.650;8.774;2023-05-02T01:07:08;3.13;;;2.83;;
12970;SDS011;6550;48.650;8.774;2023-05-02T01:12:54;3.73;;;3.30;;
12970;SDS011;6550;48.650;8.774;2023-05-02T01:15:30;3.60;;;3.30;;
12970;SDS011;6550;48.650;8.774;2023-05-02T01:17:59;4.00;;;3.50;;
12970;SDS011;6550;48.650;8.774;2023-05-02T01:20:31;5.03;;;3.17;;
12970;SDS011;6550;48.650;8.774;2023-05-02T01:23:05;3.73;;;3.43;;
12970;SDS011;6550;48.650;8.774;2023-05-02T01:25:51;3.83;;;3.40;;
12970;SDS011;6550;48.650;8.774;2023-05-02T01:28:51;3.97;;;3.50;;
12970;SDS011;6550;48.650;8.774;2023-05-02T01:31:26;3.47;;;3.17;;
12970;SDS011;6550;48.650;8.774;2023-05-02T01:33:56;5.37;;;3.57;;
12970;SDS011;6550;48.650;8.774;2023-05-02T01:36:28;4.17;;;3.30;;
12970;SDS011;6550;48.650;8.774;2023-05-02T01:38:59;5.17;;;3.30;;
12970;SDS011;6550;48.650;8.774;2023-05-02T01:41:28;3.90;;;3.20;;
12970;SDS011;6550;48.650;8.774;2023-05-02T01:43:56;4.87;;;3.07;;
12970;SDS011;6550;48.650;8.774;2023-05-02T01:46:25;3.30;;;3.00;;
12970;SDS011;6550;48.650;8.774;2023-05-02T01:49:00;3.43;;;2.90;;
12970;SDS011;6550;48.650;8.774;2023-05-02T01:51:36;4.07;;;2.60;;
12970;SDS011;6550;48.650;8.774;2023-05-02T01:54:08;2.97;;;2.77;;
12970;SDS011;6550;48.650;8.774;2023-05-02T01:56:38;2.95;;;2.75;;
12970;SDS011;6550;48.650;8.774;2023-05-02T01:59:11;3.20;;;2.90;;
12970;SDS011;6550;48.650;8.774;2023-05-02T02:01:45;3.30;;;3.10;;
12970;SDS011;6550;48.650;8.774;2023-05-02T02:04:15;3.43;;;3.20;;
12970;SDS011;6550;48.650;8.774;2023-05-02T02:06:48;3.03;;;2.80;;
12970;SDS011;6550;48.650;8.774;2023-05-02T02:09:20;2.70;;;2.50;;
12970;SDS011;6550;48.650;8.774;2023-05-02T02:12:07;3.97;;;3.00;;
12970;SDS011;6550;48.650;8.774;2023-05-02T02:14:45;4.70;;;3.20;;
12970;SDS011;6550;48.650;8.774;2023-05-02T02:17:59;4.30;;;2.80;;
12970;SDS011;6550;48.650;8.774;2023-05-02T02:20:11;4.00;;;2.70;;
12970;SDS011;6550;48.650;8.774;2023-05-02T02:22:40;2.40;;;2.20;;
12970;SDS011;6550;48.650;8.774;2023-05-02T02:25:13;3.00;;;2.80;;
12970;SDS011;6550;48.650;8.774;2023-05-02T02:27:41;3.77;;;2.57;;
12970;SDS011;6550;48.650;8.774;2023-05-02T02:30:09;2.63;;;2.40;;
12970;SDS011;6550;48.650;8.774;2023-05-02T02:32:38;2.85;;;2.63;;
12970;SDS011;6550;48.650;8.774;2023-05-02T02:35:05;2.83;;;2.30;;
12970;SDS011;6550;48.650;8.774;2023-05-02T02:40:38;2.60;;;2.40;;
12970;SDS011;6550;48.650;8.774;2023-05-02T02:45:49;3.07;;;2.00;;
12970;SDS011;6550;48.650;8.774;2023-05-02T02:56:55;2.40;;;2.20;;
12970;SDS011;6550;48.650;8.774;2023-05-02T02:59:33;2.60;;;2.40;;
12970;SDS011;6550;48.650;8.774;2023-05-02T03:02:11;2.13;;;2.00;;
12970;SDS011;6550;48.650;8.774;2023-05-02T03:04:40;2.10;;;2.00;;
12970;SDS011;6550;48.650;8.774;2023-05-02T03:07:11;1.90;;;1.80;;
12970;SDS011;6550;48.650;8.774;2023-05-02T03:09:44;2.30;;;2.20;;
12970;SDS011;6550;48.650;8.774;2023-05-02T03:12:12;2.10;;;1.90;;
12970;SDS011;6550;48.650;8.774;2023-05-02T03:14:42;3.20;;;2.20;;
12970;SDS011;6550;48.650;8.774;2023-05-02T03:17:08;2.23;;;2.13;;
12970;SDS011;6550;48.650;8.774;2023-05-02T03:19:36;1.87;;;1.77;;
12970;SDS011;6550;48.650;8.774;2023-05-02T03:22:03;2.77;;;2.13;;
12970;SDS011;6550;48.650;8.774;2023-05-02T03:24:32;2.23;;;2.03;;
12970;SDS011;6550;48.650;8.774;2023-05-02T03:26:59;2.43;;;2.23;;
12970;SDS011;6550;48.650;8.774;2023-05-02T03:29:26;2.23;;;2.03;;
12970;SDS011;6550;48.650;8.774;2023-05-02T03:31:53;3.73;;;2.20;;
12970;SDS011;6550;48.650;8.774;2023-05-02T03:34:20;2.33;;;2.13;;
12970;SDS011;6550;48.650;8.774;2023-05-02T03:36:49;2.80;;;2.17;;
12970;SDS011;6550;48.650;8.774;2023-05-02T03:39:16;2.37;;;2.17;;
12970;SDS011;6550;48.650;8.774;2023-05-02T03:41:43;2.00;;;1.90;;
12970;SDS011;6550;48.650;8.774;2023-05-02T03:44:10;6.70;;;2.40;;
12970;SDS011;6550;48.650;8.774;2023-05-02T03:46:36;5.23;;;2.10;;
12970;SDS011;6550;48.650;8.774;2023-05-02T03:49:05;5.63;;;2.63;;
12970;SDS011;6550;48.650;8.774;2023-05-02T03:51:35;6.10;;;2.53;;
12970;SDS011;6550;48.650;8.774;2023-05-02T03:54:04;2.17;;;2.03;;
12970;SDS011;6550;48.650;8.774;2023-05-02T03:56:31;4.37;;;2.40;;
12970;SDS011;6550;48.650;8.774;2023-05-02T03:59:00;2.90;;;2.10;;
12970;SDS011;6550;48.650;8.774;2023-05-02T04:01:29;3.28;;;2.50;;
12970;SDS011;6550;48.650;8.774;2023-05-02T04:03:59;2.57;;;2.37;;
12970;SDS011;6550;48.650;8.774;2023-05-02T04:06:28;5.80;;;2.67;;
12970;SDS011;6550;48.650;8.774;2023-05-02T04:08:56;2.70;;;2.50;;
12970;SDS011;6550;48.650;8.774;2023-05-02T04:11:25;2.60;;;2.40;;
12970;SDS011;6550;48.650;8.774;2023-05-02T04:13:53;17.07;;;3.20;;
12970;SDS011;6550;48.650;8.774;2023-05-02T04:16:20;15.30;;;3.37;;
12970;SDS011;6550;48.650;8.774;2023-05-02T04:18:47;9.33;;;2.83;;
12970;SDS011;6550;48.650;8.774;2023-05-02T04:21:16;6.60;;;2.83;;
12970;SDS011;6550;48.650;8.774;2023-05-02T04:23:43;3.60;;;2.10;;
12970;SDS011;6550;48.650;8.774;2023-05-02T04:26:12;3.97;;;2.10;;
12970;SDS011;6550;48.650;8.774;2023-05-02T04:28:40;2.03;;;1.93;;
12970;SDS011;6550;48.650;8.774;2023-05-02T04:31:07;2.27;;;2.10;;
12970;SDS011;6550;48.650;8.774;2023-05-02T04:33:36;3.43;;;2.03;;
12970;SDS011;6550;48.650;8.774;2023-05-02T04:36:03;2.67;;;2.00;;
12970;SDS011;6550;48.650;8.774;2023-05-02T04:38:35;3.40;;;2.10;;
12970;SDS011;6550;48.650;8.774;2023-05-02T04:41:01;3.30;;;1.90;;
12970;SDS011;6550;48.650;8.774;2023-05-02T04:43:37;4.37;;;2.27;;
12970;SDS011;6550;48.650;8.774;2023-05-02T04:46:04;21.13;;;2.30;;
12970;SDS011;6550;48.650;8.774;2023-05-02T04:48:31;5.60;;;2.40;;
12970;SDS011;6550;48.650;8.774;2023-05-02T04:50:58;2.77;;;2.10;;
12970;SDS011;6550;48.650;8.774;2023-05-02T04:53:25;2.30;;;2.10;;
12970;SDS011;6550;48.650;8.774;2023-05-02T04:55:53;3.70;;;2.40;;
12970;SDS011;6550;48.650;8.774;2023-05-02T04:58:22;3.60;;;2.45;;
12970;SDS011;6550;48.650;8.774;2023-05-02T05:00:49;2.80;;;2.60;;
12970;SDS011;6550;48.650;8.774;2023-05-02T05:03:21;3.90;;;2.60;;
12970;SDS011;6550;48.650;8.774;2023-05-02T05:05:48;2.77;;;2.57;;
12970;SDS011;6550;48.650;8.774;2023-05-02T05:08:14;2.57;;;2.37;;
12970;SDS011;6550;48.650;8.774;2023-05-02T05:10:44;2.87;;;2.67;;
12970;SDS011;6550;48.650;8.774;2023-05-02T05:13:10;2.50;;;2.30;;
12970;SDS011;6550;48.650;8.774;2023-05-02T05:15:39;2.60;;;2.40;;
12970;SDS011;6550;48.650;8.774;2023-05-02T05:18:05;2.73;;;2.53;;
12970;SDS011;6550;48.650;8.774;2023-05-02T05:20:32;3.43;;;2.33;;
12970;SDS011;6550;48.650;8.774;2023-05-02T05:22:59;3.63;;;2.10;;
12970;SDS011;6550;48.650;8.774;2023-05-02T05:25:28;8.07;;;2.07;;
12970;SDS011;6550;48.650;8.774;2023-05-02T05:27:55;2.47;;;2.27;;
12970;SDS011;6550;48.650;8.774;2023-05-02T05:30:24;3.87;;;2.10;;
12970;SDS011;6550;48.650;8.774;2023-05-02T05:32:52;3.83;;;2.17;;
12970;SDS011;6550;48.650;8.774;2023-05-02T05:35:22;2.90;;;1.73;;
12970;SDS011;6550;48.650;8.774;2023-05-02T05:37:51;10.57;;;2.73;;
12970;SDS011;6550;48.650;8.774;2023-05-02T05:40:20;6.23;;;2.13;;
12970;SDS011;6550;48.650;8.774;2023-05-02T05:42:52;16.30;;;2.67;;
12970;SDS011;6550;48.650;8.774;2023-05-02T05:45:18;11.87;;;2.60;;
12970;SDS011;6550;48.650;8.774;2023-05-02T05:47:50;10.43;;;2.27;;
12970;SDS011;6550;48.650;8.774;2023-05-02T05:50:19;9.03;;;2.70;;
12970;SDS011;6550;48.650;8.774;2023-05-02T05:52:48;4.43;;;2.93;;
12970;SDS011;6550;48.650;8.774;2023-05-02T05:55:15;3.17;;;2.70;;
12970;SDS011;6550;48.650;8.774;2023-05-02T05:57:44;3.60;;;2.87;;
12970;SDS011;6550;48.650;8.774;2023-05-02T06:00:11;3.13;;;2.50;;
12970;SDS011;6550;48.650;8.774;2023-05-02T06:02:38;31.80;;;3.77;;
12970;SDS011;6550;48.650;8.774;2023-05-02T06:05:05;11.30;;;3.50;;
12970;SDS011;6550;48.650;8.774;2023-05-02T06:07:32;9.90;;;3.63;;
12970;SDS011;6550;48.650;8.774;2023-05-02T06:10:02;9.50;;;3.17;;
12970;SDS011;6550;48.650;8.774;2023-05-02T06:12:29;9.80;;;3.13;;
12970;SDS011;6550;48.650;8.774;2023-05-02T06:14:56;4.70;;;3.00;;
12970;SDS011;6550;48.650;8.774;2023-05-02T06:17:23;3.67;;;2.87;;
12970;SDS011;6550;48.650;8.774;2023-05-02T06:19:50;4.93;;;2.97;;
12970;SDS011;6550;48.650;8.774;2023-05-02T06:22:17;10.70;;;3.63;;
12970;SDS011;6550;48.650;8.774;2023-05-02T06:24:51;20.20;;;3.47;;
12970;SDS011;6550;48.650;8.774;2023-05-02T06:27:18;14.20;;;3.87;;
12970;SDS011;6550;48.650;8.774;2023-05-02T06:29:50;11.77;;;3.37;;
12970;SDS011;6550;48.650;8.774;2023-05-02T06:32:20;7.77;;;3.30;;
12970;SDS011;6550;48.650;8.774;2023-05-02T06:34:46;5.20;;;3.23;;
12970;SDS011;6550;48.650;8.774;2023-05-02T06:37:13;6.63;;;3.13;;
12970;SDS011;6550;48.650;8.774;2023-05-02T06:39:40;3.33;;;3.10;;
12970;SDS011;6550;48.650;8.774;2023-05-02T06:42:07;5.93;;;3.90;;
12970;SDS011;6550;48.650;8.774;2023-05-02T06:44:36;3.60;;;3.30;;
12970;SDS011;6550;48.650;8.774;2023-05-02T06:47:05;3.88;;;3.08;;
12970;SDS011;6550;48.650;8.774;2023-05-02T06:49:35;12.83;;;3.70;;
12970;SDS011;6550;48.650;8.774;2023-05-02T06:52:01;13.63;;;3.87;;
12970;SDS011;6550;48.650;8.774;2023-05-02T06:54:28;10.60;;;3.80;;
12970;SDS011;6550;48.650;8.774;2023-05-02T06:56:55;9.33;;;3.30;;
12970;SDS011;6550;48.650;8.774;2023-05-02T06:59:22;4.80;;;3.00;;
12970;SDS011;6550;48.650;8.774;2023-05-02T07:01:49;4.80;;;3.70;;
12970;SDS011;6550;48.650;8.774;2023-05-02T07:04:16;8.37;;;3.23;;
12970;SDS011;6550;48.650;8.774;2023-05-02T07:06:43;4.57;;;3.57;;
12970;SDS011;6550;48.650;8.774;2023-05-02T07:09:13;5.33;;;3.23;;
12970;SDS011;6550;48.650;8.774;2023-05-02T07:11:42;5.73;;;3.30;;
12970;SDS011;6550;48.650;8.774;2023-05-02T07:14:09;3.90;;;3.30;;
12970;SDS011;6550;48.650;8.774;2023-05-02T07:16:40;3.57;;;3.30;;
12970;SDS011;6550;48.650;8.774;2023-05-02T07:19:06;6.10;;;3.37;;
12970;SDS011;6550;48.650;8.774;2023-05-02T07:21:33;4.18;;;3.55;;
12970;SDS011;6550;48.650;8.774;2023-05-02T07:24:03;5.20;;;3.70;;
12970;SDS011;6550;48.650;8.774;2023-05-02T07:26:32;3.27;;;3.07;;
12970;SDS011;6550;48.650;8.774;2023-05-02T07:28:59;3.13;;;2.93;;
12970;SDS011;6550;48.650;8.774;2023-05-02T07:31:26;4.63;;;2.87;;
12970;SDS011;6550;48.650;8.774;2023-05-02T07:33:53;5.10;;;3.60;;
12970;SDS011;6550;48.650;8.774;2023-05-02T07:36:24;4.63;;;3.23;;
12970;SDS011;6550;48.650;8.774;2023-05-02T07:38:53;3.43;;;3.13;;
12970;SDS011;6550;48.650;8.774;2023-05-02T07:41:22;5.03;;;4.63;;
12970;SDS011;6550;48.650;8.774;2023-05-02T07:43:54;5.20;;;4.27;;
12970;SDS011;6550;48.650;8.774;2023-05-02T07:46:23;4.80;;;4.40;;
12970;SDS011;6550;48.650;8.774;2023-05-02T07:48:50;6.00;;;5.40;;
12970;SDS011;6550;48.650;8.774;2023-05-02T07:51:19;7.23;;;5.83;;
12970;SDS011;6550;48.650;8.774;2023-05-02T07:53:49;14.17;;;5.77;;
12970;SDS011;6550;48.650;8.774;2023-05-02T07:56:18;13.60;;;7.65;;
12970;SDS011;6550;48.650;8.774;2023-05-02T07:58:46;29.20;;;8.73;;
12970;SDS011;6550;48.650;8.774;2023-05-02T08:01:13;21.30;;;9.93;;
12970;SDS011;6550;48.650;8.774;2023-05-02T08:03:40;31.73;;;12.17;;
12970;SDS011;6550;48.650;8.774;2023-05-02T08:06:07;24.23;;;11.80;;
12970;SDS011;6550;48.650;8.774;2023-05-02T08:08:36;25.23;;;10.87;;
12970;SDS011;6550;48.650;8.774;2023-05-02T08:11:03;26.23;;;11.30;;
12970;SDS011;6550;48.650;8.774;2023-05-02T08:13:30;24.13;;;11.63;;
12970;SDS011;6550;48.650;8.774;2023-05-02T08:15:56;19.17;;;12.45;;
12970;SDS011;6550;48.650;8.774;2023-05-02T08:18:24;17.20;;;12.37;;
12970;SDS011;6550;48.650;8.774;2023-05-02T08:20:51;14.93;;;12.53;;
12970;SDS011;6550;48.650;8.774;2023-05-02T08:23:18;22.80;;;13.90;;
12970;SDS011;6550;48.650;8.774;2023-05-02T08:25:47;15.13;;;13.57;;
12970;SDS011;6550;48.650;8.774;2023-05-02T08:28:14;14.87;;;12.07;;
12970;SDS011;6550;48.650;8.774;2023-05-02T08:30:41;22.57;;;13.90;;
12970;SDS011;6550;48.650;8.774;2023-05-02T08:33:10;15.33;;;13.73;;
12970;SDS011;6550;48.650;8.774;2023-05-02T08:35:39;16.40;;;12.53;;
12970;SDS011;6550;48.650;8.774;2023-05-02T08:38:10;18.40;;;13.80;;
12970;SDS011;6550;48.650;8.774;2023-05-02T08:40:39;18.83;;;13.60;;
12970;SDS011;6550;48.650;8.774;2023-05-02T08:43:11;18.17;;;14.93;;
12970;SDS011;6550;48.650;8.774;2023-05-02T08:45:39;16.13;;;14.53;;
12970;SDS011;6550;48.650;8.774;2023-05-02T08:48:07;15.87;;;14.20;;
12970;SDS011;6550;48.650;8.774;2023-05-02T08:50:36;19.87;;;14.40;;
12970;SDS011;6550;48.650;8.774;2023-05-02T08:53:08;15.23;;;13.63;;
12970;SDS011;6550;48.650;8.774;2023-05-02T08:55:37;18.13;;;14.63;;
12970;SDS011;6550;48.650;8.774;2023-05-02T08:58:08;22.23;;;13.80;;
12970;SDS011;6550;48.650;8.774;2023-05-02T09:00:37;19.52;;;15.90;;
12970;SDS011;6550;48.650;8.774;2023-05-02T09:05:46;16.43;;;14.43;;
12970;SDS011;6550;48.650;8.774;2023-05-02T09:08:22;16.60;;;13.63;;
12970;SDS011;6550;48.650;8.774;2023-05-02T09:10:49;17.67;;;14.60;;
12970;SDS011;6550;48.650;8.774;2023-05-02T09:16:08;14.37;;;12.50;;
12970;SDS011;6550;48.650;8.774;2023-05-02T09:18:39;14.53;;;12.47;;
12970;SDS011;6550;48.650;8.774;2023-05-02T09:21:12;25.27;;;13.37;;
12970;SDS011;6550;48.650;8.774;2023-05-02T09:28:53;15.40;;;13.87;;
12970;SDS011;6550;48.650;8.774;2023-05-02T09:31:21;15.10;;;13.57;;
12970;SDS011;6550;48.650;8.774;2023-05-02T09:34:16;15.15;;;13.23;;
12970;SDS011;6550;48.650;8.774;2023-05-02T09:36:47;14.17;;;12.73;;
12970;SDS011;6550;48.650;8.774;2023-05-02T09:39:20;15.53;;;12.80;;
12970;SDS011;6550;48.650;8.774;2023-05-02T09:41:54;13.60;;;12.27;;
12970;SDS011;6550;48.650;8.774;2023-05-02T09:44:22;11.90;;;10.70;;
12970;SDS011;6550;48.650;8.774;2023-05-02T09:46:51;12.57;;;10.43;;
12970;SDS011;6550;48.650;8.774;2023-05-02T09:49:56;12.53;;;11.33;;
12970;SDS011;6550;48.650;8.774;2023-05-02T09:52:16;11.10;;;9.77;;
12970;SDS011;6550;48.650;8.774;2023-05-02T09:54:44;12.07;;;10.87;;
12970;SDS011;6550;48.650;8.774;2023-05-02T09:57:21;11.47;;;10.37;;
12970;SDS011;6550;48.650;8.774;2023-05-02T10:00:07;11.63;;;10.43;;
12970;SDS011;6550;48.650;8.774;2023-05-02T10:02:34;17.63;;;11.00;;
12970;SDS011;6550;48.650;8.774;2023-05-02T10:05:05;10.85;;;8.85;;
12970;SDS011;6550;48.650;8.774;2023-05-02T10:07:36;11.30;;;7.00;;
12970;SDS011;6550;48.650;8.774;2023-05-02T10:10:05;10.20;;;8.20;;
12970;SDS011;6550;48.650;8.774;2023-05-02T10:12:33;9.67;;;8.00;;
12970;SDS011;6550;48.650;8.774;2023-05-02T10:15:02;10.73;;;9.70;;
12970;SDS011;6550;48.650;8.774;2023-05-02T10:17:30;10.10;;;9.10;;
12970;SDS011;6550;48.650;8.774;2023-05-02T10:20:02;10.70;;;8.67;;
12970;SDS011;6550;48.650;8.774;2023-05-02T10:22:33;9.57;;;7.77;;
12970;SDS011;6550;48.650;8.774;2023-05-02T10:25:01;8.37;;;7.53;;
12970;SDS011;6550;48.650;8.774;2023-05-02T10:27:29;11.90;;;9.07;;
12970;SDS011;6550;48.650;8.774;2023-05-02T10:29:59;10.00;;;8.97;;
12970;SDS011;6550;48.650;8.774;2023-05-02T10:32:32;9.10;;;7.63;;
12970;SDS011;6550;48.650;8.774;2023-05-02T10:35:03;10.07;;;7.73;;
12970;SDS011;6550;48.650;8.774;2023-05-02T10:37:32;9.63;;;7.50;;
12970;SDS011;6550;48.650;8.774;2023-05-02T10:40:01;8.80;;;7.97;;
12970;SDS011;6550;48.650;8.774;2023-05-02T10:42:31;8.23;;;6.93;;
12970;SDS011;6550;48.650;8.774;2023-05-02T10:45:11;10.27;;;6.27;;
12970;SDS011;6550;48.650;8.774;2023-05-02T10:47:38;6.67;;;5.90;;
12970;SDS011;6550;48.650;8.774;2023-05-02T10:50:09;6.43;;;4.50;;
12970;SDS011;6550;48.650;8.774;2023-05-02T10:52:37;6.03;;;5.27;;
12970;SDS011;6550;48.650;8.774;2023-05-02T10:55:19;6.23;;;5.40;;
12970;SDS011;6550;48.650;8.774;2023-05-02T11:00:29;7.17;;;6.10;;
12970;SDS011;6550;48.650;8.774;2023-05-02T11:02:59;7.75;;;5.32;;
12970;SDS011;6550;48.650;8.774;2023-05-02T11:05:29;8.37;;;6.23;;
12970;SDS011;6550;48.650;8.774;2023-05-02T11:11:23;9.15;;;5.00;;
12970;SDS011;6550;48.650;8.774;2023-05-02T11:14:05;6.70;;;6.00;;
12970;SDS011;6550;48.650;8.774;2023-05-02T11:19:30;3.53;;;3.20;;
12970;SDS011;6550;48.650;8.774;2023-05-02T11:22:31;3.53;;;3.00;;
12970;SDS011;6550;48.650;8.774;2023-05-02T11:24:58;5.07;;;4.67;;
12970;SDS011;6550;48.650;8.774;2023-05-02T11:29:59;6.07;;;5.27;;
12970;SDS011;6550;48.650;8.774;2023-05-02T11:35:17;6.27;;;5.47;;
12970;SDS011;6550;48.650;8.774;2023-05-02T11:37:52;7.00;;;5.80;;
12970;SDS011;6550;48.650;8.774;2023-05-02T11:40:25;6.57;;;5.97;;
12970;SDS011;6550;48.650;8.774;2023-05-02T11:42:55;6.90;;;6.30;;
12970;SDS011;6550;48.650;8.774;2023-05-02T11:45:33;6.80;;;6.17;;
12970;SDS011;6550;48.650;8.774;2023-05-02T11:48:03;7.90;;;7.10;;
12970;SDS011;6550;48.650;8.774;2023-05-02T11:50:41;6.67;;;6.07;;
12970;SDS011;6550;48.650;8.774;2023-05-02T11:53:16;5.63;;;5.10;;
12970;SDS011;6550;48.650;8.774;2023-05-02T11:55:51;5.90;;;5.33;;
12970;SDS011;6550;48.650;8.774;2023-05-02T11:58:25;6.33;;;5.20;;
12970;SDS011;6550;48.650;8.774;2023-05-02T12:01:21;4.83;;;4.33;;
12970;SDS011;6550;48.650;8.774;2023-05-02T12:03:46;4.63;;;4.23;;
12970;SDS011;6550;48.650;8.774;2023-05-02T12:06:17;7.23;;;6.00;;
12970;SDS011;6550;48.650;8.774;2023-05-02T12:08:45;7.70;;;6.10;;
12970;SDS011;6550;48.650;8.774;2023-05-02T12:11:16;6.70;;;6.10;;
12970;SDS011;6550;48.650;8.774;2023-05-02T12:13:43;10.50;;;7.33;;
12970;SDS011;6550;48.650;8.774;2023-05-02T12:16:12;6.93;;;5.70;;
12970;SDS011;6550;48.650;8.774;2023-05-02T12:18:44;7.27;;;5.40;;
12970;SDS011;6550;48.650;8.774;2023-05-02T12:21:14;8.10;;;4.97;;
12970;SDS011;6550;48.650;8.774;2023-05-02T12:23:42;63.23;;;8.17;;
12970;SDS011;6550;48.650;8.774;2023-05-02T12:26:19;108.15;;;11.75;;
12970;SDS011;6550;48.650;8.774;2023-05-02T12:28:52;163.50;;;15.27;;
12970;SDS011;6550;48.650;8.774;2023-05-02T12:31:23;105.83;;;13.90;;
12970;SDS011;6550;48.650;8.774;2023-05-02T12:33:53;68.30;;;10.87;;
12970;SDS011;6550;48.650;8.774;2023-05-02T12:36:23;25.73;;;9.60;;
12970;SDS011;6550;48.650;8.774;2023-05-02T12:38:51;15.47;;;8.33;;
12970;SDS011;6550;48.650;8.774;2023-05-02T12:41:38;13.20;;;7.63;;
12970;SDS011;6550;48.650;8.774;2023-05-02T12:44:11;13.83;;;6.63;;
12970;SDS011;6550;48.650;8.774;2023-05-02T12:46:56;7.00;;;6.30;;
12970;SDS011;6550;48.650;8.774;2023-05-02T12:49:24;8.10;;;7.30;;
12970;SDS011;6550;48.650;8.774;2023-05-02T12:51:51;49.27;;;8.87;;
12970;SDS011;6550;48.650;8.774;2023-05-02T12:54:23;52.77;;;8.43;;
12970;SDS011;6550;48.650;8.774;2023-05-02T12:56:51;35.53;;;7.53;;
12970;SDS011;6550;48.650;8.774;2023-05-02T12:59:25;26.83;;;7.83;;
12970;SDS011;6550;48.650;8.774;2023-05-02T13:01:58;14.73;;;8.10;;
12970;SDS011;6550;48.650;8.774;2023-05-02T13:07:02;9.70;;;8.70;;
12970;SDS011;6550;48.650;8.774;2023-05-02T13:09:28;9.60;;;8.70;;
12970;SDS011;6550;48.650;8.774;2023-05-02T13:11:57;10.13;;;9.10;;
12970;SDS011;6550;48.650;8.774;2023-05-02T13:14:28;9.63;;;8.73;;
12970;SDS011;6550;48.650;8.774;2023-05-02T13:16:59;10.80;;;8.77;;
12970;SDS011;6550;48.650;8.774;2023-05-02T13:19:29;13.17;;;8.63;;
12970;SDS011;6550;48.650;8.774;2023-05-02T13:21:56;10.32;;;9.32;;
12970;SDS011;6550;48.650;8.774;2023-05-02T13:24:23;71.37;;;11.20;;
12970;SDS011;6550;48.650;8.774;2023-05-02T13:26:50;43.07;;;8.60;;
12970;SDS011;6550;48.650;8.774;2023-05-02T13:29:17;25.27;;;8.77;;
12970;SDS011;6550;48.650;8.774;2023-05-02T13:31:47;28.70;;;7.73;;
12970;SDS011;6550;48.650;8.774;2023-05-02T13:34:18;23.87;;;6.77;;
12970;SDS011;6550;48.650;8.774;2023-05-02T13:36:45;21.17;;;6.73;;
12970;SDS011;6550;48.650;8.774;2023-05-02T13:39:14;24.00;;;5.80;;
12970;SDS011;6550;48.650;8.774;2023-05-02T13:41:41;9.90;;;5.70;;
12970;SDS011;6550;48.650;8.774;2023-05-02T13:44:08;20.77;;;5.70;;
12970;SDS011;6550;48.650;8.774;2023-05-02T13:46:35;17.60;;;5.40;;
12970;SDS011;6550;48.650;8.774;2023-05-02T13:49:03;10.43;;;4.87;;
12970;SDS011;6550;48.650;8.774;2023-05-02T13:51:30;17.20;;;5.17;;
12970;SDS011;6550;48.650;8.774;2023-05-02T13:53:58;5.90;;;4.83;;
12970;SDS011;6550;48.650;8.774;2023-05-02T13:56:27;18.93;;;4.70;;
12970;SDS011;6550;48.650;8.774;2023-05-02T13:58:58;11.57;;;5.03;;
12970;SDS011;6550;48.650;8.774;2023-05-02T14:01:25;8.57;;;5.10;;
12970;SDS011;6550;48.650;8.774;2023-05-02T14:03:53;11.30;;;4.43;;
12970;SDS011;6550;48.650;8.774;2023-05-02T14:06:22;36.63;;;5.60;;
12970;SDS011;6550;48.650;8.774;2023-05-02T14:08:50;25.77;;;5.90;;
12970;SDS011;6550;48.650;8.774;2023-05-02T14:11:19;34.55;;;5.47;;
12970;SDS011;6550;48.650;8.774;2023-05-02T14:13:46;17.80;;;4.80;;
12970;SDS011;6550;48.650;8.774;2023-05-02T14:16:13;7.77;;;4.67;;
12970;SDS011;6550;48.650;8.774;2023-05-02T14:18:42;10.43;;;4.63;;
12970;SDS011;6550;48.650;8.774;2023-05-02T14:21:10;23.53;;;4.93;;
12970;SDS011;6550;48.650;8.774;2023-05-02T14:23:42;16.80;;;5.03;;
12970;SDS011;6550;48.650;8.774;2023-05-02T14:26:11;15.40;;;4.30;;
12970;SDS011;6550;48.650;8.774;2023-05-02T14:28:39;17.53;;;4.13;;
12970;SDS011;6550;48.650;8.774;2023-05-02T14:31:08;12.00;;;4.60;;
12970;SDS011;6550;48.650;8.774;2023-05-02T14:33:35;12.90;;;4.10;;
12970;SDS011;6550;48.650;8.774;2023-05-02T14:36:01;94.73;;;9.27;;
12970;SDS011;6550;48.650;8.774;2023-05-02T14:38:28;292.60;;;19.03;;
12970;SDS011;6550;48.650;8.774;2023-05-02T14:40:55;375.80;;;26.77;;
12970;SDS011;6550;48.650;8.774;2023-05-02T14:43:22;367.93;;;27.23;;
12970;SDS011;6550;48.650;8.774;2023-05-02T14:45:49;290.77;;;21.13;;
12970;SDS011;6550;48.650;8.774;2023-05-02T14:48:16;272.40;;;19.70;;
12970;SDS011;6550;48.650;8.774;2023-05-02T14:50:43;285.60;;;20.07;;
12970;SDS011;6550;48.650;8.774;2023-05-02T14:53:12;289.33;;;22.27;;
12970;SDS011;6550;48.650;8.774;2023-05-02T14:55:43;248.50;;;18.40;;
12970;SDS011;6550;48.650;8.774;2023-05-02T14:58:12;178.07;;;13.13;;
12970;SDS011;6550;48.650;8.774;2023-05-02T15:00:45;105.13;;;10.83;;
12970;SDS011;6550;48.650;8.774;2023-05-02T15:03:13;75.47;;;8.73;;
12970;SDS011;6550;48.650;8.774;2023-05-02T15:05:42;104.23;;;8.37;;
12970;SDS011;6550;48.650;8.774;2023-05-02T15:08:09;66.75;;;7.22;;
12970;SDS011;6550;48.650;8.774;2023-05-02T15:10:36;52.47;;;5.70;;
12970;SDS011;6550;48.650;8.774;2023-05-02T15:13:03;34.77;;;5.40;;
12970;SDS011;6550;48.650;8.774;2023-05-02T15:15:33;43.70;;;5.87;;
12970;SDS011;6550;48.650;8.774;2023-05-02T15:18:03;32.30;;;5.05;;
12970;SDS011;6550;48.650;8.774;2023-05-02T15:20:30;27.03;;;4.10;;
12970;SDS011;6550;48.650;8.774;2023-05-02T15:22:56;17.63;;;3.47;;
12970;SDS011;6550;48.650;8.774;2023-05-02T15:25:28;13.00;;;3.20;;
12970;SDS011;6550;48.650;8.774;2023-05-02T15:27:56;14.17;;;3.63;;
12970;SDS011;6550;48.650;8.774;2023-05-02T15:30:22;10.90;;;3.37;;
12970;SDS011;6550;48.650;8.774;2023-05-02T15:32:49;112.90;;;8.53;;
12970;SDS011;6550;48.650;8.774;2023-05-02T15:35:16;60.00;;;6.57;;
12970;SDS011;6550;48.650;8.774;2023-05-02T15:37:43;46.83;;;5.70;;
12970;SDS011;6550;48.650;8.774;2023-05-02T15:40:12;37.60;;;4.47;;
12970;SDS011;6550;48.650;8.774;2023-05-02T15:42:39;34.50;;;4.43;;
12970;SDS011;6550;48.650;8.774;2023-05-02T15:45:10;32.93;;;4.23;;
12970;SDS011;6550;48.650;8.774;2023-05-02T15:47:39;34.43;;;4.87;;
12970;SDS011;6550;48.650;8.774;2023-05-02T15:50:06;32.80;;;4.57;;
12970;SDS011;6550;48.650;8.774;2023-05-02T15:52:33;18.90;;;3.10;;
12970;SDS011;6550;48.650;8.774;2023-05-02T15:55:02;19.13;;;3.53;;
12970;SDS011;6550;48.650;8.774;2023-05-02T15:57:31;14.17;;;2.93;;